Time;durP1;ratioP1;P1;durP2;ratioP2;P2;SDS_P1;SDS_P2;PMS_P1;PMS_P2;Temp;Humidity;BMP_temperature;BMP_pressure;BME280_temperature;BME280_humidity;BME280_pressure;Samples;Min_cycle;Max_cycle;Signal;HPM_P1;HPM_P2
2021/04/10 00:00:35;;;;;;;26.90;15.36;;;;;;;3.81;46.70;100196.04;361518;110;1962969;-72
2021/04/10 00:01:41;;;;;;;25.99;15.07;;;;;;;3.79;46.84;100195.38;326957;110;2614910;-72
2021/04/10 00:02:52;;;;;;;28.02;15.48;;;;;;;3.73;47.13;100186.96;358896;110;1961938;-73
2021/04/10 00:03:57;;;;;;;27.04;16.33;;;;;;;3.71;47.09;100193.44;360467;110;1961930;-72
2021/04/10 00:05:06;;;;;;;27.43;15.69;;;;;;;3.68;47.10;100193.74;362078;110;1961977;-73
2021/04/10 00:06:13;;;;;;;28.19;14.78;;;;;;;3.65;47.16;100188.67;363504;107;1962018;-73
2021/04/10 00:07:19;;;;;;;27.98;16.32;;;;;;;3.64;47.20;100193.18;331470;108;2957941;-72
2021/04/10 00:08:24;;;;;;;26.82;15.57;;;;;;;3.60;47.30;100185.59;334952;110;1960689;-72
2021/04/10 00:09:29;;;;;;;33.97;15.49;;;;;;;3.62;47.26;100191.64;364830;107;1961872;-72
2021/04/10 00:10:37;;;;;;;29.76;15.37;;;;;;;3.59;47.28;100192.78;366701;107;1960742;-72
2021/04/10 00:11:42;;;;;;;32.58;15.68;;;;;;;3.58;47.33;100185.77;331051;110;2622938;-72
2021/04/10 00:12:48;;;;;;;27.07;16.23;;;;;;;3.59;47.37;100187.44;342746;110;1963026;-72
2021/04/10 00:13:54;;;;;;;27.47;15.59;;;;;;;3.58;47.39;100183.09;365868;110;1962878;-72
2021/04/10 00:14:59;;;;;;;26.73;15.27;;;;;;;3.56;47.58;100181.56;367254;108;1961977;-72
2021/04/10 00:16:06;;;;;;;27.92;16.25;;;;;;;3.53;47.69;100185.37;362575;109;1963026;-72
2021/04/10 00:17:18;;;;;;;32.07;16.41;;;;;;;3.53;47.58;100185.37;357914;109;1961907;-71
2021/04/10 00:18:23;;;;;;;27.11;15.38;;;;;;;3.51;47.66;100180.16;363983;109;1962027;-72
2021/04/10 00:19:29;;;;;;;27.54;15.01;;;;;;;3.51;47.70;100182.83;363293;110;1968929;-73
2021/04/10 00:20:36;;;;;;;26.54;15.06;;;;;;;3.51;47.68;100182.83;364063;108;1961918;-72
2021/04/10 00:21:41;;;;;;;25.98;14.76;;;;;;;3.50;47.74;100185.67;365191;108;1962002;-72
2021/04/10 00:22:48;;;;;;;25.04;14.48;;;;;;;3.49;47.76;100186.64;364669;110;1962038;-71
2021/04/10 00:24:04;;;;;;;28.82;17.28;;;;;;;3.47;47.78;100189.47;315190;110;2201407;-71
2021/04/10 00:25:11;;;;;;;31.93;14.54;;;;;;;3.45;47.90;100188.77;352126;112;1962014;-72
2021/04/10 00:26:17;;;;;;;24.71;15.19;;;;;;;3.42;48.08;100193.58;329594;113;2508020;-72
2021/04/10 00:27:23;;;;;;;27.39;15.68;;;;;;;3.40;48.12;100190.20;334050;113;1962960;-71
2021/04/10 00:28:28;;;;;;;27.55;15.59;;;;;;;3.40;48.05;100192.87;356737;112;1961962;-72
2021/04/10 00:29:33;;;;;;;25.61;15.27;;;;;;;3.38;48.18;100195.68;354105;112;1964976;-72
2021/04/10 00:30:39;;;;;;;25.22;15.06;;;;;;;3.37;48.20;100193.17;349240;112;1962046;-72
2021/04/10 00:31:44;;;;;;;32.27;15.79;;;;;;;3.36;48.33;100191.47;352346;113;1963003;-71
2021/04/10 00:32:50;;;;;;;26.81;16.29;;;;;;;3.33;48.35;100189.09;317931;112;2642975;-72
2021/04/10 00:33:56;;;;;;;26.51;15.01;;;;;;;3.33;48.44;100194.44;354878;112;1964904;-72
2021/04/10 00:35:03;;;;;;;27.48;15.99;;;;;;;3.30;48.55;100191.06;358483;112;1962005;-72
2021/04/10 00:36:10;;;;;;;26.24;16.22;;;;;;;3.30;48.55;100188.40;304209;112;2215574;-72
2021/04/10 00:37:15;;;;;;;25.36;15.27;;;;;;;3.27;48.82;100186.02;354179;111;1961943;-71
2021/04/10 00:38:20;;;;;;;26.07;15.46;;;;;;;3.26;48.75;100189.69;352647;112;1961956;-72
2021/04/10 00:39:25;;;;;;;22.89;14.19;;;;;;;3.26;48.74;100189.69;354264;112;1961932;-72
2021/04/10 00:40:31;;;;;;;26.18;15.64;;;;;;;3.23;48.94;100192.66;351272;112;1962030;-71
2021/04/10 00:41:37;;;;;;;26.02;14.92;;;;;;;3.23;48.96;100194.49;308144;112;2820992;-72
2021/04/10 00:42:42;;;;;;;27.49;14.19;;;;;;;3.22;48.96;100193.63;332723;111;1962033;-72
2021/04/10 00:43:49;;;;;;;28.78;16.64;;;;;;;3.22;48.83;100192.80;352371;113;1962050;-71
2021/04/10 00:44:55;;;;;;;24.55;14.48;;;;;;;3.21;49.02;100191.95;354182;111;1962002;-71
2021/04/10 00:46:01;;;;;;;23.57;14.11;;;;;;;3.20;48.94;100190.28;313128;111;2806280;-72
2021/04/10 00:47:06;;;;;;;26.46;14.56;;;;;;;3.19;48.96;100182.41;354982;112;1963970;-72
2021/04/10 00:48:12;;;;;;;24.96;14.77;;;;;;;3.18;49.15;100188.75;351716;114;1962004;-72
2021/04/10 00:49:17;;;;;;;26.96;15.93;;;;;;;3.16;49.14;100188.88;351032;114;1964045;-72
2021/04/10 00:50:23;;;;;;;24.71;14.44;;;;;;;3.14;49.06;100182.00;353998;112;1961978;-72
2021/04/10 00:51:29;;;;;;;26.93;14.72;;;;;;;3.13;49.21;100183.84;313234;112;2746015;-71
2021/04/10 00:52:36;;;;;;;26.53;14.83;;;;;;;3.14;49.10;100185.51;339478;113;1962001;-72
2021/04/10 00:53:43;;;;;;;24.68;14.80;;;;;;;3.13;49.12;100191.02;350115;113;1962021;-71
2021/04/10 00:54:51;;;;;;;25.09;15.88;;;;;;;3.13;49.07;100193.68;316655;115;2014118;-72
2021/04/10 00:56:04;;;;;;;32.57;18.04;;;;;;;3.12;49.08;100187.47;303267;112;2879029;-71
2021/04/10 00:57:09;;;;;;;23.19;14.90;;;;;;;3.13;48.97;100183.00;352365;112;1961944;-72
2021/04/10 00:58:16;;;;;;;25.27;15.43;;;;;;;3.15;48.90;100186.34;352626;112;1962041;-71
2021/04/10 00:59:21;;;;;;;28.06;17.95;;;;;;;3.15;48.84;100191.68;332331;115;2238040;-72
2021/04/10 01:00:27;;;;;;;26.75;16.14;;;;;;;3.16;48.83;100190.72;351614;112;1962067;-72
2021/04/10 01:01:33;;;;;;;25.03;15.68;;;;;;;3.16;48.81;100196.05;352288;113;1961904;-73
2021/04/10 01:02:39;;;;;;;24.66;16.39;;;;;;;3.17;48.71;100184.38;350808;115;1961974;-71
2021/04/10 01:03:44;;;;;;;26.51;14.94;;;;;;;3.18;48.65;100197.59;329227;112;2414012;-71
2021/04/10 01:04:50;;;;;;;26.69;15.33;;;;;;;3.19;48.57;100191.25;331958;112;1961935;-72
2021/04/10 01:05:55;;;;;;;26.44;15.29;;;;;;;3.21;48.54;100193.80;353320;112;1962093;-72
2021/04/10 01:07:01;;;;;;;23.98;13.45;;;;;;;3.25;48.42;100190.66;353757;115;1961907;-72
2021/04/10 01:08:07;;;;;;;26.87;15.38;;;;;;;3.30;48.26;100200.91;354202;112;1962990;-72
2021/04/10 01:09:13;;;;;;;23.13;14.32;;;;;;;3.32;48.23;100198.95;331544;112;1961897;-71
2021/04/10 01:10:21;;;;;;;27.05;14.63;;;;;;;3.35;48.11;100193.31;353430;112;1962937;-72
2021/04/10 01:11:39;;;;;;;24.62;14.35;;;;;;;3.34;48.05;100196.14;313254;112;2078354;-71
2021/04/10 01:12:59;;;;;;;23.12;13.87;;;;;;;3.36;48.03;100200.35;347252;117;1961849;-71
2021/04/10 01:14:18;;;;;;;21.36;12.79;;;;;;;3.36;47.98;100191.47;334510;113;2893025;-73
2021/04/10 01:15:28;;;;;;;20.84;12.64;;;;;;;3.36;47.94;100194.14;351552;115;1963001;-71
2021/04/10 01:16:40;;;;;;;23.43;13.30;;;;;;;3.37;47.85;100195.84;348923;113;1962892;-71
2021/04/10 01:17:58;;;;;;;21.43;12.58;;;;;;;3.36;47.85;100194.14;348558;113;1961968;-72
2021/04/10 01:19:20;;;;;;;19.02;12.47;;;;;;;3.36;47.82;100194.14;337410;112;2282938;-71
2021/04/10 01:20:31;;;;;;;20.79;12.67;;;;;;;3.34;47.85;100188.97;348526;112;1964057;-72
2021/04/10 01:21:40;;;;;;;20.87;11.56;;;;;;;3.32;47.85;100193.60;350150;112;1961971;-72
2021/04/10 01:23:16;;;;;;;23.75;12.63;;;;;;;3.33;47.86;100191.77;356447;114;1961923;-72
2021/04/10 01:24:31;;;;;;;23.91;12.78;;;;;;;3.33;47.83;100195.27;312964;117;2632988;-72
2021/04/10 01:25:44;;;;;;;23.12;12.41;;;;;;;3.33;47.79;100195.27;306594;119;1965050;-71
2021/04/10 01:26:56;;;;;;;21.16;10.65;;;;;;;3.35;47.75;100192.47;339662;118;1962070;-72
2021/04/10 01:28:05;;;;;;;21.73;12.01;;;;;;;3.33;47.71;100189.94;350572;114;1963440;-71
2021/04/10 01:29:24;;;;;;;18.97;11.45;;;;;;;3.32;47.73;100190.09;344377;113;1963989;-71
2021/04/10 01:30:33;;;;;;;20.92;12.30;;;;;;;3.30;47.74;100191.06;364138;108;1961949;-72
2021/04/10 01:31:43;;;;;;;19.73;11.17;;;;;;;3.29;47.77;100191.23;366011;108;1963018;-72
2021/04/10 01:33:09;;;;;;;20.40;12.11;;;;;;;3.28;47.76;100194.87;345551;109;2259037;-71
2021/04/10 01:34:18;;;;;;;20.82;11.41;;;;;;;3.29;47.77;100199.24;372217;106;1961914;-72
2021/04/10 01:35:27;;;;;;;20.83;11.41;;;;;;;3.27;47.76;100194.03;353170;106;1963845;-73
2021/04/10 01:36:38;;;;;;;20.69;12.17;;;;;;;3.26;47.75;100192.36;363094;109;1960982;-71
2021/04/10 01:37:54;;;;;;;24.17;13.35;;;;;;;3.25;47.78;100187.99;365052;109;1961928;-71
2021/04/10 01:39:02;;;;;;;22.26;13.01;;;;;;;3.26;47.78;100197.70;367639;107;1961928;-72
2021/04/10 01:40:11;;;;;;;21.87;12.77;;;;;;;3.25;47.78;100187.99;371542;107;1962026;-72
2021/04/10 01:41:18;;;;;;;17.61;10.96;;;;;;;3.25;47.80;100193.33;344498;109;1963976;-72
2021/04/10 01:42:25;;;;;;;25.35;13.92;;;;;;;3.24;47.78;100194.33;366303;109;1963935;-72
2021/04/10 01:43:36;;;;;;;23.11;12.91;;;;;;;3.23;47.75;100191.83;370588;107;1960714;-72
2021/04/10 01:44:44;;;;;;;23.13;13.20;;;;;;;3.22;47.80;100190.95;370230;108;1961905;-71
2021/04/10 01:45:52;;;;;;;24.66;12.27;;;;;;;3.20;47.87;100200.97;359668;107;1962896;-71
2021/04/10 01:47:01;;;;;;;22.38;12.33;;;;;;;3.20;47.87;100195.63;370267;107;1961953;-71
2021/04/10 01:48:11;;;;;;;21.89;12.52;;;;;;;3.20;47.83;100195.63;371143;107;1961940;-72
2021/04/10 01:49:17;;;;;;;23.07;12.48;;;;;;;3.21;47.96;100193.80;371035;107;1961947;-72
2021/04/10 01:50:24;;;;;;;22.26;12.17;;;;;;;3.21;47.92;100197.30;347002;109;2262955;-72
2021/04/10 01:51:31;;;;;;;22.43;12.24;;;;;;;3.20;47.93;100200.09;362881;107;1961913;-72
2021/04/10 01:52:38;;;;;;;22.58;13.41;;;;;;;3.19;47.94;100198.43;349158;109;2237001;-71
2021/04/10 01:53:45;;;;;;;25.09;13.49;;;;;;;3.18;48.02;100202.09;365804;107;1963072;-72
2021/04/10 01:54:51;;;;;;;22.27;13.19;;;;;;;3.14;48.17;100198.86;330452;107;2712017;-72
2021/04/10 01:55:59;;;;;;;24.98;13.63;;;;;;;3.14;48.25;100198.86;369694;107;1962976;-72
2021/04/10 01:57:07;;;;;;;23.76;13.63;;;;;;;3.13;48.23;100189.17;366780;107;1961909;-73
2021/04/10 01:58:16;;;;;;;21.87;14.08;;;;;;;3.11;48.24;100198.31;370706;107;1962080;-72
2021/04/10 01:59:24;;;;;;;24.36;15.06;;;;;;;3.09;48.37;100203.78;370106;107;1963002;-73
2021/04/10 02:00:35;;;;;;;22.42;13.44;;;;;;;3.07;48.48;100193.27;371749;107;1961923;-70
2021/04/10 02:01:42;;;;;;;24.43;13.26;;;;;;;3.05;48.55;100199.73;362047;110;1963020;-73
2021/04/10 02:02:48;;;;;;;22.48;12.83;;;;;;;3.03;48.58;100199.03;305211;113;2798938;-72
2021/04/10 02:03:57;;;;;;;24.30;14.54;;;;;;;3.02;48.67;100206.20;364287;109;1962007;-72
2021/04/10 02:05:07;;;;;;;22.84;13.22;;;;;;;3.00;48.69;100199.33;360329;109;1963013;-74
2021/04/10 02:06:14;;;;;;;23.50;13.11;;;;;;;2.98;48.81;100206.63;347895;109;1961971;-71
2021/04/10 02:07:26;;;;;;;22.78;14.28;;;;;;;2.97;48.83;100199.62;369352;107;1965042;-72
2021/04/10 02:08:34;;;;;;;22.36;13.73;;;;;;;2.95;48.91;100202.41;370104;107;1962003;-72
2021/04/10 02:09:45;;;;;;;22.12;12.80;;;;;;;2.94;48.98;100199.87;358227;107;1961924;-72
2021/04/10 02:10:57;;;;;;;25.61;12.96;;;;;;;2.93;49.05;100199.04;367006;107;1961925;-71
2021/04/10 02:12:11;;;;;;;24.37;13.23;;;;;;;2.95;49.11;100201.58;355356;107;2254016;-72
2021/04/10 02:13:19;;;;;;;22.72;13.23;;;;;;;2.92;49.12;100201.88;370316;107;1962976;-72
2021/04/10 02:14:28;;;;;;;24.44;14.06;;;;;;;2.91;49.23;100202.84;370256;107;1961965;-72
2021/04/10 02:15:35;;;;;;;21.86;12.77;;;;;;;2.89;49.57;100204.84;356269;107;1962849;-72
2021/04/10 02:16:41;;;;;;;21.16;13.47;;;;;;;2.88;49.39;100205.80;361985;109;1961920;-71
2021/04/10 02:17:49;;;;;;;20.49;12.63;;;;;;;2.88;49.31;100201.30;352947;109;1963878;-72
2021/04/10 02:18:56;;;;;;;24.06;12.25;;;;;;;2.86;49.35;100203.29;353402;112;1962028;-72
2021/04/10 02:20:10;;;;;;;25.94;13.49;;;;;;;2.86;49.40;100205.95;310852;111;2241006;-72
2021/04/10 02:21:12;;;;;;;22.53;12.69;;;;;;;2.84;49.52;100210.59;357493;111;1964814;-73
2021/04/10 02:22:20;;;;;;;24.81;13.42;;;;;;;2.81;49.61;100210.88;361277;109;1961696;-72
2021/04/10 02:23:25;;;;;;;25.19;14.81;;;;;;;2.79;49.73;100203.00;343938;109;2307014;-72
2021/04/10 02:24:32;;;;;;;21.91;13.37;;;;;;;2.16;49.80;100104.81;356136;111;1962030;-72
2021/04/10 02:25:40;;;;;;;22.71;13.28;;;;;;;2.73;49.82;100198.25;344394;109;2286996;-71
2021/04/10 02:26:48;;;;;;;23.97;12.76;;;;;;;2.74;49.77;100199.92;363546;110;1961970;-72
2021/04/10 02:27:56;;;;;;;24.50;13.60;;;;;;;2.71;49.82;100200.21;362393;110;1960959;-71
2021/04/10 02:29:02;;;;;;;25.81;13.04;;;;;;;2.69;49.98;100199.50;354941;113;1960732;-72
2021/04/10 02:30:08;;;;;;;22.22;13.07;;;;;;;2.69;49.96;100202.17;330154;107;2645791;-72
2021/04/10 02:31:18;;;;;;;23.42;13.43;;;;;;;2.67;50.16;100196.13;370759;108;1959883;-72
2021/04/10 02:32:36;;;;;;;22.51;13.45;;;;;;;2.67;50.10;100198.80;369150;108;1961982;-71
2021/04/10 02:33:43;;;;;;;24.69;13.17;;;;;;;2.66;50.22;100190.95;318445;105;2232966;-72
2021/04/10 02:34:56;;;;;;;24.36;13.29;;;;;;;2.64;50.15;100197.25;368969;107;1961024;-72
2021/04/10 02:36:03;;;;;;;24.56;12.37;;;;;;;2.62;50.31;100198.41;360739;112;1964064;-71
2021/04/10 02:37:09;;;;;;;21.86;12.61;;;;;;;2.62;50.40;100196.58;345878;116;1963030;-72
2021/04/10 02:38:18;;;;;;;21.97;12.97;;;;;;;2.60;50.24;100195.88;330422;111;1960839;-71
2021/04/10 02:39:26;;;;;;;24.92;12.98;;;;;;;2.59;50.34;100201.33;328422;111;2948904;-72
2021/04/10 02:40:36;;;;;;;19.63;11.85;;;;;;;2.59;50.45;100196.00;365393;109;1960804;-72
2021/04/10 02:41:46;;;;;;;23.92;13.04;;;;;;;2.58;50.39;100194.33;362804;111;1960706;-72
2021/04/10 02:42:52;;;;;;;23.69;13.14;;;;;;;2.57;50.38;100197.98;362277;110;1960836;-72
2021/04/10 02:44:09;;;;;;;23.51;12.38;;;;;;;2.55;50.51;100195.45;362490;111;1960834;-72
2021/04/10 02:45:24;;;;;;;24.39;12.36;;;;;;;2.58;50.46;100200.50;363738;107;1960799;-72
2021/04/10 02:46:47;;;;;;;21.51;12.41;;;;;;;2.56;50.44;100197.13;342558;113;2253027;-72
2021/04/10 02:47:56;;;;;;;20.86;12.39;;;;;;;2.55;50.59;100199.95;355441;111;1961863;-72
2021/04/10 02:49:05;;;;;;;23.36;12.42;;;;;;;2.54;50.60;100195.58;348169;111;1964026;-71
2021/04/10 02:50:18;;;;;;;25.45;12.60;;;;;;;2.57;50.62;100200.66;360306;111;1962008;-72
2021/04/10 02:51:26;;;;;;;24.75;12.39;;;;;;;2.56;50.50;100201.62;363294;111;1963973;-72
2021/04/10 02:52:35;;;;;;;22.38;12.41;;;;;;;2.53;50.61;100201.91;359421;111;1961930;-72
2021/04/10 02:53:43;;;;;;;22.41;11.39;;;;;;;2.53;50.50;100197.41;361213;111;1961946;-72
2021/04/10 02:54:50;;;;;;;22.17;11.13;;;;;;;2.55;50.54;100194.61;330106;111;2557062;-72
2021/04/10 02:55:58;;;;;;;22.32;12.24;;;;;;;2.54;50.58;100201.78;363010;111;1962012;-72
2021/04/10 02:57:13;;;;;;;24.38;12.43;;;;;;;2.55;50.54;100199.95;342575;111;1961988;-72
2021/04/10 02:58:22;;;;;;;23.27;12.55;;;;;;;2.54;50.60;100201.78;360576;111;1963044;-72
2021/04/10 02:59:29;;;;;;;24.27;12.34;;;;;;;2.53;50.60;100205.41;361713;112;1961982;-72
2021/04/10 03:00:40;;;;;;;24.47;12.21;;;;;;;2.53;50.63;100201.91;336954;113;2886988;-71
2021/04/10 03:01:47;;;;;;;24.78;11.90;;;;;;;2.52;50.65;100197.57;329495;113;2490951;-71
2021/04/10 03:02:56;;;;;;;24.91;12.57;;;;;;;2.52;50.65;100206.41;363616;106;1960728;-71
2021/04/10 03:04:03;;;;;;;20.12;10.63;;;;;;;2.52;50.67;100208.23;358048;112;1961983;-73
2021/04/10 03:05:12;;;;;;;23.07;11.34;;;;;;;2.51;50.74;100204.70;324501;111;2644028;-71
2021/04/10 03:06:19;;;;;;;19.36;10.78;;;;;;;2.51;50.80;100201.20;359230;112;1962080;-72
2021/04/10 03:07:28;;;;;;;21.28;10.99;;;;;;;2.51;50.70;100203.87;354724;112;1961982;-71
2021/04/10 03:08:33;;;;;;;22.33;11.74;;;;;;;2.49;50.79;100213.82;363321;109;1963042;-72
2021/04/10 03:09:46;;;;;;;25.50;11.45;;;;;;;2.49;50.72;100216.48;364929;110;1961921;-72
2021/04/10 03:10:54;;;;;;;18.16;10.53;;;;;;;2.49;50.78;100212.02;319731;112;2030164;-71
2021/04/10 03:12:00;;;;;;;22.01;11.98;;;;;;;2.48;50.85;100212.16;357949;111;1961974;-71
2021/04/10 03:13:06;;;;;;;19.68;10.87;;;;;;;2.46;50.83;100214.98;359526;112;1961985;-72
2021/04/10 03:14:12;;;;;;;23.36;11.14;;;;;;;2.48;50.82;100214.81;326824;110;1961931;-71
2021/04/10 03:15:18;;;;;;;22.59;11.96;;;;;;;2.48;50.78;100220.15;364900;109;1960714;-71
2021/04/10 03:16:30;;;;;;;20.74;11.16;;;;;;;2.49;50.81;100225.36;349082;109;1961998;-73
2021/04/10 03:17:40;;;;;;;18.99;10.58;;;;;;;2.49;50.83;100220.02;365905;110;1962050;-73
2021/04/10 03:18:49;;;;;;;21.36;12.07;;;;;;;2.49;50.88;100219.16;347401;110;1962017;-72
2021/04/10 03:19:56;;;;;;;21.92;12.37;;;;;;;2.50;50.85;100224.36;360868;111;1963003;-73
2021/04/10 03:21:04;;;;;;;20.02;10.98;;;;;;;2.50;50.75;100219.03;362855;110;1961969;-71
2021/04/10 03:22:11;;;;;;;18.49;11.18;;;;;;;2.49;50.70;100222.69;356130;112;1963942;-71
2021/04/10 03:23:18;;;;;;;20.25;11.41;;;;;;;2.54;50.79;100225.78;315387;111;2791086;-71
2021/04/10 03:24:24;;;;;;;21.05;11.63;;;;;;;2.56;50.63;100214.95;363532;110;1962014;-72
2021/04/10 03:25:29;;;;;;;18.77;11.51;;;;;;;2.59;50.55;100222.67;362488;110;1961948;-71
2021/04/10 03:26:37;;;;;;;23.13;11.74;;;;;;;2.59;50.57;100218.20;336913;110;1961949;-72
2021/04/10 03:27:45;;;;;;;23.64;12.36;;;;;;;2.60;50.55;100221.70;354710;112;1962019;-72
2021/04/10 03:28:52;;;;;;;18.04;10.14;;;;;;;2.61;50.57;100220.71;339613;109;2486956;-72
2021/04/10 03:29:58;;;;;;;21.69;11.20;;;;;;;2.64;50.43;100225.76;368066;109;1962007;-72
2021/04/10 03:31:07;;;;;;;19.54;10.77;;;;;;;2.66;50.37;100226.47;365562;110;1961934;-72
2021/04/10 03:32:13;;;;;;;20.69;11.22;;;;;;;2.67;50.36;100225.47;362364;110;1963022;-72
2021/04/10 03:33:22;;;;;;;18.84;10.79;;;;;;;2.68;50.33;100218.34;362431;111;1962046;-72
2021/04/10 03:34:28;;;;;;;18.45;10.89;;;;;;;2.70;50.25;100232.34;362284;111;1964930;-72
2021/04/10 03:35:35;;;;;;;20.86;10.92;;;;;;;2.72;50.18;100225.05;362298;110;1962032;-73
2021/04/10 03:36:43;;;;;;;25.27;12.83;;;;;;;2.73;50.17;100222.26;338837;111;2875990;-72
2021/04/10 03:37:48;;;;;;;19.87;11.33;;;;;;;2.71;50.23;100221.55;355147;110;1962013;-71
2021/04/10 03:38:57;;;;;;;19.72;9.19;;;;;;;2.72;50.17;100220.55;362606;110;1962031;-72
2021/04/10 03:40:03;;;;;;;19.61;11.22;;;;;;;2.74;50.16;100225.77;340469;111;1962023;-73
2021/04/10 03:41:10;;;;;;;20.81;11.30;;;;;;;2.78;50.06;100230.68;363192;111;1962052;-71
2021/04/10 03:42:19;;;;;;;21.37;11.07;;;;;;;2.79;50.00;100223.52;335840;110;2510953;-71
2021/04/10 03:43:25;;;;;;;18.98;11.05;;;;;;;2.79;49.93;100224.34;330253;110;2607934;-72
2021/04/10 03:44:30;;;;;;;20.41;12.32;;;;;;;2.80;49.93;100226.02;325706;112;1961983;-72
2021/04/10 03:45:35;;;;;;;25.33;12.64;;;;;;;2.83;49.83;100223.09;359415;111;1961918;-72
2021/04/10 03:46:44;;;;;;;20.64;11.15;;;;;;;2.87;49.73;100223.64;341497;111;1961978;-72
2021/04/10 03:48:05;;;;;;;21.06;10.71;;;;;;;2.87;49.78;100231.64;362291;109;1961890;-76
2021/04/10 03:49:18;;;;;;;22.68;11.64;;;;;;;2.90;49.69;100234.02;344963;110;2241976;-72
2021/04/10 03:50:25;;;;;;;18.30;10.81;;;;;;;2.94;49.61;100223.89;359965;110;1961966;-72
2021/04/10 03:51:32;;;;;;;21.11;10.17;;;;;;;2.97;49.57;100227.14;348678;111;2219908;-72
2021/04/10 03:52:39;;;;;;;20.06;10.39;;;;;;;3.00;49.53;100231.34;363261;109;1961944;-73
2021/04/10 03:53:45;;;;;;;15.98;9.67;;;;;;;3.02;49.46;100221.38;367111;109;1962965;-73
2021/04/10 03:54:52;;;;;;;17.97;10.19;;;;;;;3.06;49.39;100228.94;359218;108;1961901;-73
2021/04/10 03:55:58;;;;;;;19.74;10.63;;;;;;;3.08;49.45;100228.80;365218;108;1961905;-72
2021/04/10 03:57:04;;;;;;;19.97;9.97;;;;;;;3.11;49.26;100225.84;364014;108;1962051;-72
2021/04/10 03:58:10;;;;;;;20.22;10.82;;;;;;;3.16;49.17;100225.41;331610;108;1961666;-73
2021/04/10 03:59:18;;;;;;;19.35;10.69;;;;;;;3.19;49.12;100228.62;360427;110;1965029;-71
2021/04/10 04:00:31;;;;;;;21.09;10.64;;;;;;;3.23;48.99;100227.37;356899;110;1961783;-72
2021/04/10 04:01:38;;;;;;;19.59;11.13;;;;;;;3.27;48.98;100220.73;320165;110;2908027;-72
2021/04/10 04:02:43;;;;;;;20.93;11.00;;;;;;;3.31;48.83;100218.63;345135;110;1962055;-72
2021/04/10 04:03:49;;;;;;;19.78;11.03;;;;;;;3.33;48.78;100213.97;351780;113;1964045;-72
2021/04/10 04:04:56;;;;;;;21.59;12.40;;;;;;;3.37;48.73;100222.55;351493;113;1961941;-72
2021/04/10 04:06:01;;;;;;;23.68;13.20;;;;;;;3.40;48.62;100223.09;326439;110;2232831;-72
2021/04/10 04:07:08;;;;;;;23.93;12.70;;;;;;;3.44;48.58;100226.30;338893;110;1961950;-72
2021/04/10 04:08:14;;;;;;;27.69;13.51;;;;;;;3.47;48.57;100229.53;360691;110;1962995;-72
2021/04/10 04:09:20;;;;;;;23.30;12.32;;;;;;;3.48;48.52;100225.03;321717;110;2703981;-72
2021/04/10 04:10:27;;;;;;;21.86;12.83;;;;;;;3.52;48.48;100218.42;360271;110;1961969;-72
2021/04/10 04:11:32;;;;;;;24.75;13.53;;;;;;;3.55;48.46;100225.27;360293;110;1960683;-72
2021/04/10 04:12:38;;;;;;;24.63;12.76;;;;;;;3.57;48.37;100229.48;357441;111;1964007;-73
2021/04/10 04:13:44;;;;;;;22.81;14.67;;;;;;;3.60;48.31;100229.20;312675;110;2845061;-72
2021/04/10 04:14:49;;;;;;;21.89;14.04;;;;;;;3.64;48.23;100227.07;343274;111;1961824;-72
2021/04/10 04:15:54;;;;;;;21.08;12.26;;;;;;;3.66;48.20;100225.94;359317;111;1962006;-72
2021/04/10 04:17:00;;;;;;;21.43;12.63;;;;;;;3.71;48.08;100228.17;357743;111;1962009;-72
2021/04/10 04:18:06;;;;;;;20.58;13.21;;;;;;;3.75;47.97;100226.87;359702;110;1961973;-73
2021/04/10 04:19:11;;;;;;;22.79;13.65;;;;;;;3.80;47.91;100231.78;339107;111;2353961;-72
2021/04/10 04:20:17;;;;;;;24.03;13.30;;;;;;;3.83;47.85;100226.13;360191;111;1963952;-72
2021/04/10 04:21:22;;;;;;;22.11;12.17;;;;;;;3.85;47.89;100235.69;358669;111;1961981;-72
2021/04/10 04:22:27;;;;;;;23.41;12.73;;;;;;;3.87;47.74;100220.35;358850;111;1961986;-72
2021/04/10 04:23:33;;;;;;;22.08;13.79;;;;;;;3.92;47.61;100222.59;358789;111;1965044;-73
2021/04/10 04:24:38;;;;;;;22.32;12.77;;;;;;;3.96;47.50;100229.30;357384;111;1961938;-73
2021/04/10 04:25:44;;;;;;;22.52;12.27;;;;;;;4.00;47.45;100225.35;314007;113;2733044;-72
2021/04/10 04:26:50;;;;;;;23.47;11.03;;;;;;;4.01;47.47;100228.86;344614;114;1963986;-72
2021/04/10 04:27:55;;;;;;;22.59;12.12;;;;;;;4.04;47.40;100223.20;346705;113;1961939;-72
2021/04/10 04:29:00;;;;;;;21.56;11.47;;;;;;;4.07;47.36;100220.23;349977;112;1961991;-72
2021/04/10 04:30:09;;;;;;;19.12;10.32;;;;;;;4.10;47.33;100222.59;362884;110;1961854;-72
2021/04/10 04:31:15;;;;;;;20.29;10.36;;;;;;;4.13;47.23;100219.64;364049;110;1961970;-73
2021/04/10 04:32:24;;;;;;;17.82;10.22;;;;;;;4.15;47.15;100221.18;362176;110;1961971;-73
2021/04/10 04:33:30;;;;;;;24.22;11.70;;;;;;;4.19;47.05;100227.05;362332;110;1963880;-72
2021/04/10 04:34:36;;;;;;;22.74;12.45;;;;;;;4.22;47.03;100228.59;343975;110;2302021;-73
2021/04/10 04:35:42;;;;;;;20.39;12.22;;;;;;;4.24;47.02;100223.94;363347;110;1962021;-72
2021/04/10 04:36:47;;;;;;;18.46;10.01;;;;;;;4.26;47.07;100224.60;362717;110;1962943;-72
2021/04/10 04:37:52;;;;;;;21.33;11.38;;;;;;;4.28;46.91;100230.65;360765;110;1961985;-73
2021/04/10 04:39:00;;;;;;;25.17;10.82;;;;;;;4.32;46.85;100227.53;340103;114;2888988;-73
2021/04/10 04:40:07;;;;;;;19.59;10.75;;;;;;;4.36;46.76;100228.89;344614;111;1961994;-73
2021/04/10 04:41:24;;;;;;;20.19;10.54;;;;;;;4.38;46.71;100218.88;353673;113;1962037;-73
2021/04/10 04:42:29;;;;;;;20.61;10.97;;;;;;;4.40;46.60;100226.77;334552;109;1962020;-74
2021/04/10 04:43:34;;;;;;;23.17;11.01;;;;;;;4.45;46.53;100227.16;369147;108;1961979;-72
2021/04/10 04:44:40;;;;;;;24.92;11.44;;;;;;;4.48;46.56;100229.52;371824;108;1962948;-72
2021/04/10 04:45:46;;;;;;;23.92;11.40;;;;;;;4.51;46.52;100228.38;369718;108;1962024;-73
2021/04/10 04:46:52;;;;;;;20.42;11.52;;;;;;;4.52;46.58;100233.55;327627;110;2612943;-73
2021/04/10 04:47:57;;;;;;;24.54;11.96;;;;;;;4.54;46.54;100225.39;355666;112;1961035;-72
2021/04/10 04:49:03;;;;;;;23.19;11.00;;;;;;;4.56;46.51;100232.27;370397;107;1961881;-72
2021/04/10 04:50:11;;;;;;;17.85;10.79;;;;;;;4.60;46.37;100227.44;370948;107;1960694;-72
2021/04/10 04:51:20;;;;;;;21.84;10.41;;;;;;;4.62;46.36;100231.64;340008;108;1960919;-72
2021/04/10 04:52:30;;;;;;;18.19;10.29;;;;;;;4.66;46.33;100234.88;352522;107;2291893;-71
2021/04/10 04:53:36;;;;;;;22.10;9.65;;;;;;;4.70;46.32;100232.72;362038;108;1961929;-72
2021/04/10 04:54:41;;;;;;;20.28;10.12;;;;;;;4.72;46.23;100233.41;371091;108;1961974;-72
2021/04/10 04:55:46;;;;;;;20.55;10.18;;;;;;;4.77;46.19;100231.13;370781;108;1960738;-72
2021/04/10 04:56:52;;;;;;;22.68;10.39;;;;;;;4.79;46.14;100234.45;370298;107;1961941;-72
2021/04/10 04:57:58;;;;;;;20.49;10.88;;;;;;;4.81;46.07;100235.98;327651;107;2761093;-72
2021/04/10 04:59:04;;;;;;;18.58;10.28;;;;;;;4.84;46.02;100232.16;360335;107;1962117;-72
2021/04/10 05:00:11;;;;;;;17.07;9.65;;;;;;;4.88;45.94;100227.36;361703;110;1962965;-73
2021/04/10 05:01:17;;;;;;;20.86;10.88;;;;;;;4.90;45.89;100228.05;319047;110;2746879;-72
2021/04/10 05:02:24;;;;;;;19.88;9.51;;;;;;;4.90;45.90;100222.70;357446;112;1963010;-73
2021/04/10 05:03:30;;;;;;;21.04;9.28;;;;;;;4.93;45.87;100230.41;370686;108;1962003;-72
2021/04/10 05:04:36;;;;;;;22.87;9.83;;;;;;;4.94;45.87;100224.88;332659;109;2639989;-72
2021/04/10 05:05:41;;;;;;;21.93;10.25;;;;;;;4.97;45.90;100231.77;342929;110;1961958;-73